createdAt,value
2022-08-14T00:02:07.453Z,41.05
2022-08-14T00:04:42.322Z,41.01
2022-08-14T00:07:15.518Z,40.90
2022-08-14T00:10:02.469Z,40.62
2022-08-14T00:12:41.788Z,40.41
2022-08-14T00:15:15.453Z,40.04
2022-08-14T00:17:47.574Z,40.05
2022-08-14T00:20:23.544Z,40.27
2022-08-14T00:22:57.373Z,40.43
2022-08-14T00:25:41.855Z,40.70
2022-08-14T00:28:17.653Z,40.45
2022-08-14T00:30:48.340Z,40.51
2022-08-14T00:33:18.186Z,40.58
2022-08-14T00:36:36.387Z,40.59
2022-08-14T00:38:38.583Z,40.61
2022-08-14T00:41:10.839Z,40.83
2022-08-14T00:43:43.470Z,41.04
2022-08-14T00:46:32.757Z,41.17
2022-08-14T00:49:03.843Z,40.89
2022-08-14T00:51:38.307Z,41.09
2022-08-14T00:54:11.205Z,41.43
2022-08-14T00:56:55.765Z,41.62
2022-08-14T00:59:29.846Z,41.45
2022-08-14T01:02:01.824Z,42.16
2022-08-14T01:04:38.033Z,42.10
2022-08-14T01:07:27.373Z,41.94
2022-08-14T01:10:02.668Z,42.10
2022-08-14T01:12:34.083Z,41.79
2022-08-14T01:15:14.987Z,42.39
2022-08-14T01:18:04.836Z,42.28
2022-08-14T01:20:53.641Z,42.15
2022-08-14T01:23:25.434Z,42.58
2022-08-14T01:26:14.047Z,42.82
2022-08-14T01:29:07.475Z,43.27
2022-08-14T01:31:50.250Z,43.14
2022-08-14T01:35:18.700Z,43.17
2022-08-14T01:37:12.517Z,42.03
2022-08-14T01:39:48.300Z,43.24
2022-08-14T01:42:31.759Z,43.25
2022-08-14T01:45:12.727Z,43.54
2022-08-14T01:47:47.719Z,43.87
2022-08-14T01:50:20.435Z,44.00
2022-08-14T01:53:00.196Z,44.38
2022-08-14T01:55:32.432Z,44.61
2022-08-14T01:58:19.689Z,45.34
2022-08-14T02:00:59.993Z,45.02
2022-08-14T02:03:31.622Z,45.13
2022-08-14T02:06:03.953Z,44.18
2022-08-14T02:08:55.285Z,43.50
2022-08-14T02:11:29.063Z,45.23
2022-08-14T02:14:06.808Z,45.46
2022-08-14T02:16:41.541Z,45.60
2022-08-14T02:19:15.413Z,45.45
2022-08-14T02:21:48.738Z,45.22
2022-08-14T02:24:38.834Z,45.54
2022-08-14T02:28:25.869Z,46.02
2022-08-14T02:30:06.507Z,46.31
2022-08-14T02:32:38.367Z,45.91
2022-08-14T02:35:17.995Z,45.10
2022-08-14T02:37:49.604Z,46.72
2022-08-14T02:40:32.361Z,46.95
2022-08-14T02:43:07.934Z,46.77
2022-08-14T02:45:44.517Z,46.54
2022-08-14T02:49:03.452Z,46.71
2022-08-14T02:51:09.114Z,46.18
2022-08-14T02:53:42.247Z,46.29
2022-08-14T02:56:30.912Z,46.11
2022-08-14T02:59:08.339Z,46.15
2022-08-14T03:01:43.270Z,45.77
2022-08-14T03:04:20.885Z,45.61
2022-08-14T03:07:06.427Z,45.57
2022-08-14T03:09:41.931Z,45.69
2022-08-14T03:12:32.730Z,45.78
2022-08-14T03:15:16.322Z,45.89
2022-08-14T03:17:57.673Z,45.83
2022-08-14T03:20:29.308Z,45.69
2022-08-14T03:23:03.242Z,46.15
2022-08-14T03:25:37.813Z,46.39
2022-08-14T03:28:14.680Z,46.76
2022-08-14T03:31:15.367Z,46.62
2022-08-14T03:33:51.728Z,46.50
2022-08-14T03:37:51.891Z,46.37
2022-08-14T03:39:22.186Z,44.96
2022-08-14T03:41:55.700Z,45.71
2022-08-14T03:45:19.617Z,46.11
2022-08-14T03:47:18.839Z,46.25
2022-08-14T03:49:50.169Z,47.02
2022-08-14T03:52:40.659Z,46.55
2022-08-14T03:55:14.059Z,46.58
2022-08-14T03:57:45.505Z,46.25
2022-08-14T04:00:43.870Z,45.79
2022-08-14T04:03:13.270Z,45.54
2022-08-14T04:05:48.883Z,45.98
2022-08-14T04:08:28.932Z,45.76
2022-08-14T04:11:02.953Z,45.75
2022-08-14T04:13:39.317Z,45.60
2022-08-14T04:16:13.161Z,45.80
2022-08-14T04:18:46.742Z,45.67
2022-08-14T04:21:17.857Z,45.36
2022-08-14T04:23:56.935Z,44.93
2022-08-14T04:26:42.389Z,44.94
2022-08-14T04:29:15.709Z,44.43
2022-08-14T04:32:57.834Z,44.52
2022-08-14T04:34:42.160Z,44.11
2022-08-14T04:37:29.993Z,43.87
2022-08-14T04:40:17.971Z,43.41
2022-08-14T04:43:08.893Z,42.57
2022-08-14T04:45:44.614Z,42.29
2022-08-14T04:48:39.018Z,41.57
2022-08-14T04:51:09.578Z,41.16
2022-08-14T04:53:43.660Z,41.73
2022-08-14T04:56:31.492Z,41.56
2022-08-14T04:59:10.572Z,41.04
2022-08-14T05:01:49.145Z,40.82
2022-08-14T05:04:22.953Z,39.85
2022-08-14T05:07:00.059Z,38.69
2022-08-14T05:09:48.373Z,38.98
2022-08-14T05:13:12.657Z,39.13
2022-08-14T05:15:13.602Z,39.19
2022-08-14T05:17:58.567Z,39.22
2022-08-14T05:21:57.782Z,39.36
2022-08-14T05:23:34.740Z,39.04
2022-08-14T05:26:13.344Z,39.69
2022-08-14T05:28:46.496Z,39.61
2022-08-14T05:31:21.217Z,40.06
2022-08-14T05:33:56.503Z,38.86
2022-08-14T05:36:29.007Z,39.06
2022-08-14T05:39:06.682Z,40.03
2022-08-14T05:41:53.972Z,41.39
2022-08-14T05:44:29.657Z,41.45
2022-08-14T05:47:01.159Z,41.83
2022-08-14T05:49:34.371Z,41.68
2022-08-14T05:52:09.714Z,41.43
2022-08-14T05:54:40.685Z,41.08
2022-08-14T05:57:13.645Z,39.99
2022-08-14T05:59:43.970Z,39.83
2022-08-14T06:02:14.599Z,39.68
2022-08-14T06:04:49.375Z,39.33
2022-08-14T06:07:19.740Z,38.71
2022-08-14T06:09:52.665Z,38.55
2022-08-14T06:12:31.383Z,38.32
2022-08-14T06:15:17.426Z,37.04
2022-08-14T06:17:58.760Z,36.65
2022-08-14T06:20:31.942Z,36.77
2022-08-14T06:23:05.626Z,36.87
2022-08-14T06:25:36.765Z,35.36
2022-08-14T06:28:06.876Z,35.17
2022-08-14T06:30:57.684Z,35.88
2022-08-14T06:35:01.408Z,35.75
2022-08-14T06:36:22.470Z,35.57
2022-08-14T06:38:54.871Z,35.19
2022-08-14T06:41:57.552Z,34.77
2022-08-14T06:44:30.809Z,33.12
2022-08-14T06:47:10.546Z,32.13
2022-08-14T06:49:48.544Z,30.31
2022-08-14T06:52:30.121Z,29.57
2022-08-14T06:55:01.115Z,28.26
2022-08-14T06:57:40.872Z,28.22
2022-08-14T07:00:22.507Z,27.27
2022-08-14T07:03:21.777Z,27.77
2022-08-14T07:05:59.812Z,27.27
2022-08-14T07:08:48.926Z,27.55
2022-08-14T07:11:36.735Z,26.86
2022-08-14T07:14:16.373Z,26.69
2022-08-14T07:17:03.300Z,25.60
2022-08-14T07:19:35.117Z,25.43
2022-08-14T07:22:17.398Z,25.77
2022-08-14T07:25:01.254Z,24.73
2022-08-14T07:27:36.174Z,23.79
2022-08-14T07:30:34.037Z,24.21
2022-08-14T07:33:06.995Z,23.34
2022-08-14T07:35:57.267Z,22.87
2022-08-14T07:38:37.626Z,23.28
2022-08-14T07:41:12.012Z,22.42
2022-08-14T07:43:55.117Z,21.91
2022-08-14T07:46:30.930Z,21.21
2022-08-14T07:49:08.005Z,22.90
2022-08-14T07:51:51.643Z,22.37
2022-08-14T07:54:30.310Z,22.09
2022-08-14T07:57:12.268Z,22.50
2022-08-14T07:59:51.139Z,21.85
2022-08-14T08:02:29.793Z,21.68
2022-08-14T08:05:06.544Z,22.14
2022-08-14T08:07:43.097Z,20.99
2022-08-14T08:10:57.100Z,20.97
2022-08-14T08:13:29.234Z,21.70
2022-08-14T08:16:02.267Z,20.85
2022-08-14T08:18:36.093Z,20.62
2022-08-14T08:21:08.547Z,21.01
2022-08-14T08:23:50.878Z,21.09
2022-08-14T08:26:34.333Z,20.72
2022-08-14T08:29:11.005Z,20.53
2022-08-14T08:31:52.628Z,19.30
2022-08-14T08:34:24.236Z,19.20
2022-08-14T08:37:03.867Z,19.00
2022-08-14T08:40:02.891Z,19.66
2022-08-14T08:42:41.272Z,19.69
2022-08-14T08:45:19.485Z,19.01
2022-08-14T08:47:51.966Z,18.49
2022-08-14T08:53:11.559Z,19.43
2022-08-14T08:55:47.102Z,20.37
2022-08-14T08:58:25.253Z,19.83
2022-08-14T09:00:57.842Z,19.07
2022-08-14T09:03:37.875Z,20.55
2022-08-14T09:07:01.311Z,22.53
2022-08-14T09:09:22.357Z,23.76
2022-08-14T09:12:00.900Z,24.45
2022-08-14T09:14:32.059Z,23.73
2022-08-14T09:17:08.202Z,21.61
2022-08-14T09:20:25.927Z,21.95
2022-08-14T09:23:12.971Z,23.66
2022-08-14T09:26:00.415Z,24.24
2022-08-14T09:28:32.328Z,24.00
2022-08-14T09:31:17.412Z,24.15
2022-08-14T09:34:19.792Z,23.30
2022-08-14T09:37:39.477Z,20.79
2022-08-14T09:40:23.361Z,21.21
2022-08-14T09:43:08.157Z,22.25
2022-08-14T09:45:52.901Z,23.50
2022-08-14T09:48:29.847Z,24.99
2022-08-14T09:54:17.710Z,24.96
2022-08-14T09:56:56.930Z,25.02
2022-08-14T09:59:41.103Z,26.06
2022-08-14T10:02:28.114Z,25.31
2022-08-14T10:05:03.642Z,25.56
2022-08-14T10:07:41.261Z,24.88
2022-08-14T10:10:34.638Z,22.81
2022-08-14T10:13:09.065Z,22.23
2022-08-14T10:15:48.487Z,22.88
2022-08-14T10:18:31.638Z,23.01
2022-08-14T10:21:09.492Z,22.63
2022-08-14T10:23:57.876Z,22.59
2022-08-14T10:26:36.697Z,23.92
2022-08-14T10:29:19.802Z,24.44
2022-08-14T10:32:01.584Z,25.03
2022-08-14T10:34:38.654Z,25.25
2022-08-14T10:37:15.330Z,25.26
2022-08-14T10:40:02.087Z,25.15
2022-08-14T10:42:44.001Z,25.67
2022-08-14T10:45:27.749Z,25.37
2022-08-14T10:48:07.701Z,25.51
2022-08-14T10:50:51.720Z,25.74
2022-08-14T10:53:39.930Z,25.53
2022-08-14T10:56:35.705Z,25.50
2022-08-14T10:59:10.914Z,25.14
2022-08-14T11:01:42.889Z,25.27
2022-08-14T11:04:32.368Z,24.99
2022-08-14T11:07:21.217Z,24.65
2022-08-14T11:09:57.514Z,24.75
2022-08-14T11:12:44.135Z,24.54
2022-08-14T11:15:17.296Z,24.39
2022-08-14T11:17:56.141Z,24.28
2022-08-14T11:20:34.474Z,23.43
2022-08-14T11:23:08.695Z,22.57
2022-08-14T11:25:53.375Z,21.46
2022-08-14T11:28:48.116Z,22.69
2022-08-14T11:31:23.673Z,22.84
2022-08-14T11:33:59.634Z,22.96
2022-08-14T11:36:35.331Z,23.94
2022-08-14T11:39:34.386Z,24.80
2022-08-14T11:42:56.388Z,24.81
2022-08-14T11:45:11.062Z,24.37
2022-08-14T11:48:13.748Z,23.96
2022-08-14T11:50:55.578Z,24.70
2022-08-14T11:53:42.131Z,25.40
2022-08-14T11:56:19.276Z,25.79
2022-08-14T11:58:57.034Z,25.91
2022-08-14T12:01:32.643Z,26.52
2022-08-14T12:04:32.360Z,26.66
2022-08-14T12:07:14.912Z,26.74
2022-08-14T12:09:47.220Z,26.01
2022-08-14T12:12:35.173Z,24.38
2022-08-14T12:15:11.211Z,23.29
2022-08-14T12:17:50.642Z,23.10
2022-08-14T12:20:32.570Z,23.19
2022-08-14T12:23:11.140Z,22.78
2022-08-14T12:25:46.507Z,23.30
2022-08-14T12:28:34.088Z,23.08
2022-08-14T12:31:36.219Z,23.92
2022-08-14T12:34:20.598Z,25.16
2022-08-14T12:37:21.269Z,24.77
2022-08-14T12:39:57.645Z,24.66
2022-08-14T12:42:39.634Z,25.39
2022-08-14T12:45:16.770Z,25.48
2022-08-14T12:47:51.350Z,25.35
2022-08-14T12:50:35.652Z,25.58
2022-08-14T12:53:14.492Z,25.12
2022-08-14T12:56:22.591Z,25.14
2022-08-14T12:58:57.675Z,26.29
2022-08-14T13:02:00.139Z,25.62
2022-08-14T13:04:35.472Z,25.66
2022-08-14T13:07:08.570Z,25.39
2022-08-14T13:09:41.149Z,26.12
2022-08-14T13:12:32.481Z,26.16
2022-08-14T13:15:09.578Z,24.26
2022-08-14T13:17:51.100Z,23.88
2022-08-14T13:20:28.349Z,23.38
2022-08-14T13:23:04.181Z,24.45
2022-08-14T13:25:37.957Z,24.59
2022-08-14T13:28:29.929Z,24.93
2022-08-14T13:31:11.293Z,24.65
2022-08-14T13:33:43.157Z,24.96
2022-08-14T13:36:23.941Z,25.05
2022-08-14T13:38:56.416Z,25.89
2022-08-14T13:41:31.721Z,26.48
2022-08-14T13:44:13.810Z,26.71
2022-08-14T13:46:45.930Z,26.83
2022-08-14T13:49:18.697Z,26.87
2022-08-14T13:51:50.830Z,27.14
2022-08-14T13:54:26.114Z,27.24
2022-08-14T13:57:03.885Z,28.00
2022-08-14T13:59:38.656Z,28.05
2022-08-14T14:02:09.926Z,29.32
2022-08-14T14:04:42.563Z,29.34
2022-08-14T14:07:23.478Z,29.49
2022-08-14T14:09:57.611Z,29.15
2022-08-14T14:12:38.051Z,29.26
2022-08-14T14:15:18.387Z,29.58
2022-08-14T14:17:55.735Z,29.26
2022-08-14T14:20:35.644Z,29.28
2022-08-14T14:23:12.066Z,29.24
2022-08-14T14:25:49.285Z,29.66
2022-08-14T14:28:33.795Z,29.86
2022-08-14T14:31:08.621Z,29.50
2022-08-14T14:33:46.956Z,29.24
2022-08-14T14:36:21.732Z,29.59
2022-08-14T14:38:59.354Z,29.56
2022-08-14T14:41:43.979Z,29.35
2022-08-14T14:44:19.254Z,29.72
2022-08-14T14:46:53.179Z,29.59
2022-08-14T14:49:25.961Z,29.97
2022-08-14T14:52:23.450Z,29.73
2022-08-14T14:54:59.606Z,29.62
2022-08-14T14:57:35.096Z,29.14
2022-08-14T15:00:12.807Z,29.76
2022-08-14T15:02:47.632Z,30.35
2022-08-14T15:05:21.083Z,29.61
2022-08-14T15:07:54.309Z,29.80
2022-08-14T15:10:27.533Z,29.95
2022-08-14T15:13:04.281Z,29.60
2022-08-14T15:15:36.806Z,29.86
2022-08-14T15:18:36.355Z,30.01
2022-08-14T15:21:04.112Z,30.31
2022-08-14T15:23:44.298Z,30.95
2022-08-14T15:26:24.313Z,29.95
2022-08-14T15:29:04.941Z,30.13
2022-08-14T15:31:37.502Z,30.57
2022-08-14T15:34:43.101Z,30.70
2022-08-14T15:37:12.988Z,31.11
2022-08-14T15:39:52.522Z,31.36
2022-08-14T15:42:28.435Z,31.37
2022-08-14T15:45:02.294Z,31.46
2022-08-14T15:47:43.926Z,31.52
2022-08-14T15:50:19.480Z,31.88
2022-08-14T15:52:51.729Z,31.84
2022-08-14T15:55:27.987Z,30.56
2022-08-14T15:58:14.477Z,31.70
2022-08-14T16:01:05.033Z,30.90
2022-08-14T16:03:42.382Z,31.17
2022-08-14T16:06:19.531Z,30.87
2022-08-14T16:08:58.676Z,32.80
2022-08-14T16:11:32.824Z,30.28
2022-08-14T16:14:11.355Z,31.62
2022-08-14T16:16:51.025Z,31.51
2022-08-14T16:19:31.265Z,30.42
2022-08-14T16:22:58.274Z,30.51
2022-08-14T16:25:03.394Z,30.32
2022-08-14T16:27:40.613Z,30.52
2022-08-14T16:30:24.781Z,32.08
2022-08-14T16:33:01.069Z,32.75
2022-08-14T16:35:43.053Z,33.55
2022-08-14T16:38:45.941Z,32.14
2022-08-14T16:41:23.325Z,30.55
2022-08-14T16:43:59.257Z,32.09
2022-08-14T16:46:38.197Z,33.71
2022-08-14T16:49:18.923Z,32.41
2022-08-14T16:51:53.136Z,34.04
2022-08-14T16:54:34.791Z,33.87
2022-08-14T16:57:21.639Z,32.86
2022-08-14T16:59:57.240Z,32.98
2022-08-14T17:02:43.104Z,32.72
2022-08-14T17:05:21.153Z,34.20
2022-08-14T17:08:31.604Z,33.13
2022-08-14T17:11:12.344Z,33.79
2022-08-14T17:13:59.934Z,33.73
2022-08-14T17:16:41.846Z,33.90
2022-08-14T17:19:17.525Z,34.08
2022-08-14T17:21:57.925Z,34.81
2022-08-14T17:24:58.091Z,35.63
2022-08-14T17:27:23.906Z,35.00
2022-08-14T17:29:59.889Z,34.41
2022-08-14T17:32:55.666Z,34.86
2022-08-14T17:35:38.944Z,35.03
2022-08-14T17:38:39.505Z,34.71
2022-08-14T17:41:27.302Z,35.60
2022-08-14T17:44:34.316Z,33.09
2022-08-14T17:47:14.789Z,34.75
2022-08-14T17:49:52.268Z,34.67
2022-08-14T17:52:34.458Z,34.17
2022-08-14T17:55:10.346Z,33.96
2022-08-14T17:58:20.472Z,33.42
2022-08-14T18:01:04.920Z,33.75
2022-08-14T18:03:45.829Z,34.69
2022-08-14T18:06:39.875Z,34.87
2022-08-14T18:09:24.940Z,34.78
2022-08-14T18:11:58.649Z,33.63
2022-08-14T18:14:48.294Z,32.42
2022-08-14T18:17:31.204Z,35.02
2022-08-14T18:20:16.056Z,33.90
2022-08-14T18:22:58.811Z,33.43
2022-08-14T18:25:30.507Z,34.02
2022-08-14T18:28:16.119Z,33.84
2022-08-14T18:30:58.112Z,33.27
2022-08-14T18:33:36.402Z,34.13
2022-08-14T18:36:54.413Z,34.21
2022-08-14T18:39:32.702Z,34.17
2022-08-14T18:42:44.099Z,34.14
2022-08-14T18:45:19.105Z,34.62
2022-08-14T18:48:50.225Z,34.35
2022-08-14T18:51:46.058Z,34.85
2022-08-14T18:54:38.098Z,35.03
2022-08-14T18:57:10.138Z,35.31
2022-08-14T18:59:43.313Z,35.10
2022-08-14T19:02:44.606Z,34.79
2022-08-14T19:05:59.336Z,35.28
2022-08-14T19:08:41.723Z,35.27
2022-08-14T19:11:56.369Z,35.11
2022-08-14T19:14:47.580Z,35.17
2022-08-14T19:18:14.937Z,35.13
2022-08-14T19:20:52.651Z,35.47
2022-08-14T19:23:44.077Z,35.80
2022-08-14T19:26:34.695Z,35.67
2022-08-14T19:29:23.536Z,34.45
2022-08-14T19:31:56.463Z,35.41
2022-08-14T19:34:48.078Z,35.83
2022-08-14T19:37:52.382Z,35.76
2022-08-14T19:40:38.008Z,35.97
2022-08-14T19:43:55.394Z,36.15
2022-08-14T19:46:39.215Z,36.09
2022-08-14T19:50:08.058Z,36.49
2022-08-14T19:55:45.639Z,36.77
2022-08-14T19:58:16.252Z,36.72
2022-08-14T20:01:19.110Z,36.93
2022-08-14T20:04:00.072Z,36.86
2022-08-14T20:06:46.716Z,37.12
2022-08-14T20:11:05.013Z,37.50
2022-08-14T20:12:28.991Z,37.64
2022-08-14T20:15:09.119Z,37.88
2022-08-14T20:17:53.295Z,37.93
2022-08-14T20:20:31.754Z,37.82
2022-08-14T20:23:11.877Z,38.34
2022-08-14T20:25:56.912Z,38.42
2022-08-14T20:28:35.452Z,38.39
2022-08-14T20:31:20.133Z,38.58
2022-08-14T20:34:07.192Z,38.17
2022-08-14T20:36:49.816Z,38.69
2022-08-14T20:39:24.249Z,38.65
2022-08-14T20:42:35.844Z,38.78
2022-08-14T20:45:24.745Z,38.87
2022-08-14T20:48:01.701Z,38.89
2022-08-14T20:50:44.828Z,38.49
2022-08-14T20:53:34.764Z,38.59
2022-08-14T20:56:28.760Z,38.55
2022-08-14T20:59:00.936Z,38.98
2022-08-14T21:01:38.694Z,39.07
2022-08-14T21:04:31.187Z,39.31
2022-08-14T21:07:25.749Z,39.38
2022-08-14T21:10:33.475Z,39.49
2022-08-14T21:14:17.822Z,39.52
2022-08-14T21:16:33.797Z,38.23
2022-08-14T21:19:16.263Z,39.33
2022-08-14T21:21:54.711Z,39.50
2022-08-14T21:24:39.515Z,39.90
2022-08-14T21:27:21.856Z,40.05
2022-08-14T21:29:55.301Z,40.15
2022-08-14T21:32:50.283Z,40.32
2022-08-14T21:35:30.708Z,39.96
2022-08-14T21:38:10.802Z,40.07
2022-08-14T21:40:49.470Z,40.05
2022-08-14T21:43:20.988Z,38.39
2022-08-14T21:45:56.194Z,39.53
2022-08-14T21:48:32.429Z,39.83
2022-08-14T21:51:53.631Z,40.34
2022-08-14T21:54:04.165Z,40.04
2022-08-14T21:56:39.703Z,40.29
2022-08-14T21:59:17.719Z,40.75
2022-08-14T22:02:01.810Z,40.36
2022-08-14T22:04:40.671Z,40.80
2022-08-14T22:07:45.379Z,41.20
2022-08-14T22:10:23.039Z,40.65
2022-08-14T22:13:00.421Z,40.24
2022-08-14T22:15:31.934Z,39.96
2022-08-14T22:18:04.836Z,39.74
2022-08-14T22:20:36.507Z,39.99
2022-08-14T22:23:10.076Z,40.07
2022-08-14T22:25:43.308Z,40.07
2022-08-14T22:28:20.193Z,40.25
2022-08-14T22:30:54.669Z,40.20
2022-08-14T22:33:31.009Z,40.04
2022-08-14T22:36:01.646Z,40.39
2022-08-14T22:38:38.947Z,40.58
2022-08-14T22:41:27.853Z,40.77
2022-08-14T22:44:06.586Z,41.09
2022-08-14T22:46:36.551Z,40.94
2022-08-14T22:49:16.152Z,40.96
2022-08-14T22:51:56.401Z,41.25
2022-08-14T22:54:51.901Z,41.44
2022-08-14T22:57:24.698Z,41.25
2022-08-14T23:00:12.213Z,41.57
2022-08-14T23:02:44.472Z,41.46
2022-08-14T23:05:15.336Z,41.50
2022-08-14T23:08:56.911Z,41.93
2022-08-14T23:10:40.795Z,42.15
2022-08-14T23:13:21.610Z,42.26
2022-08-14T23:15:56.473Z,41.87
2022-08-14T23:18:45.605Z,42.24
2022-08-14T23:21:17.195Z,42.23
2022-08-14T23:23:57.368Z,42.16
2022-08-14T23:26:49.504Z,41.95
2022-08-14T23:29:22.456Z,41.71
2022-08-14T23:34:55.621Z,41.89
2022-08-14T23:38:04.370Z,41.99
2022-08-14T23:40:36.139Z,42.07
2022-08-14T23:43:10.132Z,42.46
2022-08-14T23:45:46.241Z,42.33
2022-08-14T23:48:27.931Z,42.49
2022-08-14T23:51:00.163Z,42.11
2022-08-14T23:53:47.654Z,42.25
2022-08-14T23:56:32.054Z,41.90
2022-08-14T23:59:03.886Z,41.86
